createdAt,value
2023-07-04T00:01:24.451Z,17.92
2023-07-04T00:03:55.813Z,17.88
2023-07-04T00:06:29.244Z,17.83
2023-07-04T00:08:57.588Z,17.84
2023-07-04T00:11:25.716Z,17.84
2023-07-04T00:13:53.926Z,17.76
2023-07-04T00:16:22.818Z,17.78
2023-07-04T00:18:51.344Z,17.81
2023-07-04T00:21:20.647Z,17.82
2023-07-04T00:23:54.584Z,17.85
2023-07-04T00:26:25.794Z,17.87
2023-07-04T00:28:55.148Z,17.88
2023-07-04T00:31:26.234Z,17.89
2023-07-04T00:33:55.160Z,17.89
2023-07-04T00:36:23.649Z,17.89
2023-07-04T00:38:59.157Z,17.84
2023-07-04T00:41:30.099Z,17.78
2023-07-04T00:44:15.411Z,17.84
2023-07-04T00:46:57.933Z,17.81
2023-07-04T00:49:39.045Z,17.81
2023-07-04T00:52:14.246Z,17.79
2023-07-04T00:54:53.987Z,17.81
2023-07-04T00:57:28.320Z,17.85
2023-07-04T00:59:59.529Z,17.86
2023-07-04T01:02:34.338Z,17.88
2023-07-04T01:05:06.646Z,17.89
2023-07-04T01:07:44.519Z,17.88
2023-07-04T01:10:22.318Z,17.87
2023-07-04T01:12:50.866Z,17.88
2023-07-04T01:15:19.788Z,17.88
2023-07-04T01:17:47.937Z,17.85
2023-07-04T01:20:18.882Z,17.78
2023-07-04T01:22:51.695Z,17.76
2023-07-04T01:25:38.015Z,17.76
2023-07-04T01:28:08.292Z,17.71
2023-07-04T01:30:40.549Z,17.67
2023-07-04T01:33:10.121Z,17.73
2023-07-04T01:35:38.592Z,17.72
2023-07-04T01:38:07.552Z,17.65
2023-07-04T01:40:36.978Z,17.67
2023-07-04T01:43:05.784Z,17.55
2023-07-04T01:45:34.081Z,17.50
2023-07-04T01:48:02.264Z,17.42
2023-07-04T01:50:30.514Z,17.43
2023-07-04T01:52:58.664Z,17.46
2023-07-04T01:55:27.373Z,17.47
2023-07-04T01:57:55.699Z,17.45
2023-07-04T02:00:23.903Z,17.47
2023-07-04T02:02:59.193Z,17.47
2023-07-04T02:05:28.229Z,17.49
2023-07-04T02:07:56.379Z,17.45
2023-07-04T02:10:24.548Z,17.44
2023-07-04T02:12:52.743Z,17.40
2023-07-04T02:15:20.963Z,17.39
2023-07-04T02:17:49.107Z,17.39
2023-07-04T02:20:20.988Z,17.34
2023-07-04T02:22:49.076Z,17.34
2023-07-04T02:25:17.119Z,17.36
2023-07-04T02:27:45.682Z,17.38
2023-07-04T02:30:14.365Z,17.38
2023-07-04T02:32:42.500Z,17.40
2023-07-04T02:35:11.467Z,17.38
2023-07-04T02:37:41.855Z,17.35
2023-07-04T02:40:11.926Z,17.33
2023-07-04T02:42:40.341Z,17.29
2023-07-04T02:45:09.657Z,17.29
2023-07-04T02:47:39.422Z,17.26
2023-07-04T02:50:10.731Z,17.25
2023-07-04T02:52:39.270Z,17.24
2023-07-04T02:55:08.037Z,17.19
2023-07-04T02:57:36.912Z,17.20
2023-07-04T03:00:06.935Z,17.19
2023-07-04T03:02:36.267Z,17.20
2023-07-04T03:05:06.396Z,17.21
2023-07-04T03:07:34.910Z,17.26
2023-07-04T03:10:03.168Z,17.30
2023-07-04T03:12:31.709Z,17.35
2023-07-04T03:15:00.107Z,17.38
2023-07-04T03:17:29.082Z,17.41
2023-07-04T03:19:57.571Z,17.47
2023-07-04T03:22:26.038Z,17.53
2023-07-04T03:24:54.580Z,17.58
2023-07-04T03:27:22.895Z,17.63
2023-07-04T03:29:52.140Z,17.67
2023-07-04T03:32:20.482Z,17.72
2023-07-04T03:34:48.860Z,17.76
2023-07-04T03:37:17.054Z,17.78
2023-07-04T03:39:45.504Z,17.83
2023-07-04T03:42:13.944Z,17.88
2023-07-04T03:44:42.083Z,17.93
2023-07-04T03:47:10.261Z,17.99
2023-07-04T03:49:38.506Z,18.03
2023-07-04T03:52:06.982Z,18.13
2023-07-04T03:54:35.290Z,18.23
2023-07-04T03:57:04.213Z,18.27
2023-07-04T03:59:32.373Z,18.31
2023-07-04T04:02:00.608Z,18.38
2023-07-04T04:04:29.373Z,18.44
2023-07-04T04:07:00.072Z,18.51
2023-07-04T04:09:28.290Z,18.57
2023-07-04T04:11:56.698Z,18.65
2023-07-04T04:14:24.922Z,18.71
2023-07-04T04:16:53.673Z,18.84
2023-07-04T04:19:22.162Z,18.91
2023-07-04T04:21:50.378Z,19.01
2023-07-04T04:24:18.563Z,19.06
2023-07-04T04:26:48.249Z,19.36
2023-07-04T04:29:18.656Z,19.77
2023-07-04T04:31:47.613Z,20.22
2023-07-04T04:34:22.952Z,20.66
2023-07-04T04:36:51.175Z,20.86
2023-07-04T04:39:19.583Z,21.16
2023-07-04T04:41:47.775Z,21.52
2023-07-04T04:44:16.095Z,21.92
2023-07-04T04:46:49.940Z,22.16
2023-07-04T04:49:18.656Z,22.49
2023-07-04T04:51:46.665Z,22.72
2023-07-04T04:54:15.948Z,22.85
2023-07-04T04:56:45.354Z,22.85
2023-07-04T04:59:13.682Z,22.86
2023-07-04T05:01:41.988Z,22.85
2023-07-04T05:04:10.353Z,23.18
2023-07-04T05:06:38.752Z,23.50
2023-07-04T05:09:06.914Z,23.85
2023-07-04T05:11:35.357Z,23.98
2023-07-04T05:14:05.159Z,24.14
2023-07-04T05:16:33.362Z,24.24
2023-07-04T05:19:01.601Z,24.40
2023-07-04T05:21:29.820Z,24.57
2023-07-04T05:23:57.922Z,24.79
2023-07-04T05:26:27.237Z,25.03
2023-07-04T05:28:57.829Z,25.27
2023-07-04T05:31:29.008Z,25.41
2023-07-04T05:33:57.896Z,25.39
2023-07-04T05:36:29.939Z,25.50
2023-07-04T05:39:02.472Z,25.49
2023-07-04T05:41:32.695Z,25.61
2023-07-04T05:44:03.988Z,25.75
2023-07-04T05:46:33.330Z,26.08
2023-07-04T05:49:01.889Z,26.38
2023-07-04T05:51:30.682Z,26.42
2023-07-04T05:53:59.155Z,26.36
2023-07-04T05:56:29.906Z,26.29
2023-07-04T05:59:03.291Z,26.19
2023-07-04T06:01:34.023Z,26.11
2023-07-04T06:04:04.303Z,26.15
2023-07-04T06:06:39.086Z,26.17
2023-07-04T06:09:18.396Z,26.24
2023-07-04T06:11:48.819Z,26.52
2023-07-04T06:14:27.350Z,26.65
2023-07-04T06:16:58.416Z,26.89
2023-07-04T06:19:27.484Z,27.22
2023-07-04T06:21:57.186Z,27.39
2023-07-04T06:24:26.931Z,27.52
2023-07-04T06:27:00.517Z,27.60
2023-07-04T06:29:31.475Z,27.59
2023-07-04T06:31:59.983Z,27.69
2023-07-04T06:34:28.480Z,27.71
2023-07-04T06:36:57.128Z,27.66
2023-07-04T06:39:25.215Z,27.54
2023-07-04T06:41:53.361Z,27.49
2023-07-04T06:44:21.696Z,27.37
2023-07-04T06:46:50.341Z,27.21
2023-07-04T06:49:18.842Z,27.02
2023-07-04T06:51:46.997Z,26.87
2023-07-04T06:54:15.719Z,26.73
2023-07-04T06:59:14.100Z,26.49
2023-07-04T07:01:43.577Z,26.39
2023-07-04T07:04:13.996Z,26.24
2023-07-04T07:06:42.284Z,26.17
2023-07-04T07:09:10.665Z,26.04
2023-07-04T07:11:38.784Z,26.14
2023-07-04T07:14:07.326Z,26.09
2023-07-04T07:16:36.383Z,26.10
2023-07-04T07:19:04.873Z,26.06
2023-07-04T07:21:33.283Z,26.08
2023-07-04T07:24:03.011Z,26.08
2023-07-04T07:26:32.161Z,26.06
2023-07-04T07:29:00.302Z,26.05
2023-07-04T07:31:33.894Z,26.09
2023-07-04T07:34:05.996Z,26.17
2023-07-04T07:36:39.728Z,26.22
2023-07-04T07:39:11.140Z,26.25
2023-07-04T07:41:44.900Z,26.29
2023-07-04T07:44:15.401Z,26.36
2023-07-04T07:46:45.362Z,26.51
2023-07-04T07:49:13.647Z,26.63
2023-07-04T07:51:43.022Z,26.74
2023-07-04T07:54:12.046Z,26.81
2023-07-04T07:56:45.575Z,26.85
2023-07-04T07:59:14.299Z,26.92
2023-07-04T08:01:42.496Z,26.99
2023-07-04T08:04:13.616Z,27.03
2023-07-04T08:06:45.870Z,27.10
2023-07-04T08:09:17.387Z,27.22
2023-07-04T08:11:47.180Z,27.35
2023-07-04T08:14:16.536Z,27.42
2023-07-04T08:16:51.321Z,27.41
2023-07-04T08:19:24.812Z,27.47
2023-07-04T08:21:54.955Z,27.56
2023-07-04T08:24:23.524Z,27.62
2023-07-04T08:26:55.902Z,27.64
2023-07-04T08:29:24.274Z,27.60
2023-07-04T08:31:52.666Z,27.64
2023-07-04T08:34:21.078Z,27.73
2023-07-04T08:36:49.312Z,27.84
2023-07-04T08:39:18.551Z,27.96
2023-07-04T08:42:00.282Z,28.07
2023-07-04T08:44:36.263Z,28.16
2023-07-04T08:47:05.605Z,28.18
2023-07-04T08:49:48.278Z,28.18
2023-07-04T08:52:28.166Z,28.19
2023-07-04T08:54:56.560Z,28.31
2023-07-04T08:57:46.247Z,28.31
2023-07-04T09:00:22.036Z,28.23
2023-07-04T09:03:18.534Z,27.85
2023-07-04T09:05:52.562Z,27.79
2023-07-04T09:08:53.400Z,27.82
2023-07-04T09:11:22.082Z,27.91
2023-07-04T09:13:56.667Z,28.06
2023-07-04T09:16:41.334Z,28.11
2023-07-04T09:19:18.639Z,28.23
2023-07-04T09:21:47.164Z,28.37
2023-07-04T09:24:15.672Z,28.49
2023-07-04T09:26:50.948Z,28.53
2023-07-04T09:29:23.682Z,28.59
2023-07-04T09:32:02.441Z,28.66
2023-07-04T09:34:40.051Z,28.55
2023-07-04T09:37:20.321Z,28.52
2023-07-04T09:39:56.250Z,28.50
2023-07-04T09:42:45.933Z,28.42
2023-07-04T09:45:22.972Z,28.44
2023-07-04T09:47:52.831Z,28.44
2023-07-04T09:50:33.210Z,28.39
2023-07-04T09:53:05.724Z,28.28
2023-07-04T09:55:34.192Z,28.15
2023-07-04T09:58:37.417Z,28.04
2023-07-04T10:01:15.632Z,28.00
2023-07-04T10:03:46.907Z,27.89
2023-07-04T10:06:31.223Z,27.74
2023-07-04T10:11:48.912Z,27.53
2023-07-04T10:14:19.342Z,27.54
2023-07-04T10:16:52.074Z,27.55
2023-07-04T10:19:23.150Z,27.61
2023-07-04T10:21:53.854Z,27.79
2023-07-04T10:24:25.840Z,27.94
2023-07-04T10:27:15.603Z,28.29
2023-07-04T10:29:49.893Z,28.68
2023-07-04T10:32:18.744Z,28.81
2023-07-04T10:34:49.162Z,28.74
2023-07-04T10:37:32.402Z,28.64
2023-07-04T10:40:04.537Z,28.53
2023-07-04T10:42:37.793Z,28.63
2023-07-04T10:45:07.806Z,28.76
2023-07-04T10:47:39.575Z,28.81
2023-07-04T10:50:23.494Z,28.87
2023-07-04T10:52:52.226Z,28.90
2023-07-04T10:55:30.228Z,28.95
2023-07-04T10:58:15.420Z,28.80
2023-07-04T11:00:48.444Z,28.68
2023-07-04T11:03:34.217Z,28.57
2023-07-04T11:06:06.460Z,28.45
2023-07-04T11:08:36.997Z,28.31
2023-07-04T11:11:14.750Z,28.25
2023-07-04T11:13:53.070Z,28.13
2023-07-04T11:16:33.365Z,27.87
2023-07-04T11:19:21.091Z,27.30
2023-07-04T11:22:01.620Z,25.92
2023-07-04T11:24:38.056Z,25.31
2023-07-04T11:27:20.242Z,24.88
2023-07-04T11:30:01.920Z,24.76
2023-07-04T11:32:55.616Z,24.70
2023-07-04T11:35:25.066Z,24.57
2023-07-04T11:37:53.697Z,24.57
2023-07-04T11:40:27.045Z,24.84
2023-07-04T11:43:01.474Z,24.93
2023-07-04T11:45:31.449Z,25.10
2023-07-04T11:48:11.665Z,25.29
2023-07-04T11:50:53.381Z,25.50
2023-07-04T11:53:34.337Z,25.58
2023-07-04T11:56:18.183Z,25.68
2023-07-04T11:58:48.441Z,25.74
2023-07-04T12:01:18.585Z,25.87
2023-07-04T12:03:55.915Z,26.12
2023-07-04T12:06:57.078Z,26.49
2023-07-04T12:09:41.690Z,26.94
2023-07-04T12:12:19.367Z,27.22
2023-07-04T12:14:50.581Z,27.29
2023-07-04T12:17:20.177Z,27.19
2023-07-04T12:19:56.310Z,27.39
2023-07-04T12:22:26.063Z,27.62
2023-07-04T12:24:54.393Z,27.77
2023-07-04T12:27:27.820Z,27.60
2023-07-04T12:32:29.955Z,27.08
2023-07-04T12:35:11.458Z,27.12
2023-07-04T12:37:46.111Z,27.24
2023-07-04T12:40:18.913Z,27.16
2023-07-04T12:42:48.508Z,27.00
2023-07-04T12:45:24.460Z,26.94
2023-07-04T12:50:31.523Z,26.89
2023-07-04T12:53:00.369Z,26.68
2023-07-04T12:55:34.828Z,26.36
2023-07-04T12:58:05.935Z,26.37
2023-07-04T13:00:57.103Z,26.30
2023-07-04T13:03:28.429Z,26.14
2023-07-04T13:05:57.763Z,25.92
2023-07-04T13:08:29.023Z,25.92
2023-07-04T13:11:00.084Z,26.00
2023-07-04T13:13:46.289Z,26.04
2023-07-04T13:16:14.546Z,26.07
2023-07-04T13:18:45.850Z,26.12
2023-07-04T13:21:48.884Z,25.95
2023-07-04T13:27:16.473Z,25.64
2023-07-04T13:30:22.758Z,25.57
2023-07-04T13:35:27.339Z,24.51
2023-07-04T13:39:49.852Z,24.40
2023-07-04T13:40:45.421Z,24.30
2023-07-04T13:45:48.665Z,24.18
2023-07-04T13:48:17.160Z,24.23
2023-07-04T13:50:45.325Z,24.10
2023-07-04T13:53:15.930Z,23.89
2023-07-04T13:55:44.799Z,23.87
2023-07-04T13:58:13.211Z,23.92
2023-07-04T14:03:46.739Z,24.04
2023-07-04T14:06:07.117Z,24.44
2023-07-04T14:08:37.595Z,24.68
2023-07-04T14:11:11.840Z,24.63
2023-07-04T14:13:40.509Z,24.68
2023-07-04T14:21:16.623Z,24.81
2023-07-04T14:23:45.320Z,24.88
2023-07-04T14:26:21.843Z,24.97
2023-07-04T14:28:53.193Z,24.98
2023-07-04T14:31:22.259Z,24.98
2023-07-04T14:33:51.689Z,24.88
2023-07-04T14:36:20.068Z,24.87
2023-07-04T14:38:48.651Z,24.79
2023-07-04T14:43:48.508Z,24.67
2023-07-04T14:46:16.851Z,24.68
2023-07-04T14:48:44.995Z,24.84
2023-07-04T14:51:14.857Z,24.88
2023-07-04T14:53:44.218Z,25.01
2023-07-04T14:56:16.388Z,25.02
2023-07-04T14:58:45.152Z,25.30
2023-07-04T15:01:18.913Z,25.59
2023-07-04T15:03:47.662Z,25.75
2023-07-04T15:06:17.377Z,25.97
2023-07-04T15:08:46.314Z,26.07
2023-07-04T15:11:14.748Z,26.15
2023-07-04T15:13:43.064Z,26.15
2023-07-04T15:16:11.261Z,26.05
2023-07-04T15:18:39.882Z,26.01
2023-07-04T15:21:09.696Z,25.82
2023-07-04T15:23:38.201Z,25.88
2023-07-04T15:26:25.102Z,25.98
2023-07-04T15:28:56.201Z,25.99
2023-07-04T15:31:26.087Z,25.83
2023-07-04T15:33:54.608Z,25.61
2023-07-04T15:36:23.107Z,25.52
2023-07-04T15:38:51.720Z,25.47
2023-07-04T15:41:22.877Z,25.34
2023-07-04T15:43:51.184Z,25.11
2023-07-04T15:46:20.615Z,25.03
2023-07-04T15:48:48.975Z,24.76
2023-07-04T15:51:18.400Z,24.68
2023-07-04T15:53:48.596Z,24.54
2023-07-04T15:56:20.755Z,24.59
2023-07-04T15:58:48.973Z,24.50
2023-07-04T16:01:17.479Z,24.62
2023-07-04T16:03:46.510Z,24.73
2023-07-04T16:06:15.422Z,24.85
2023-07-04T16:08:43.906Z,25.17
2023-07-04T16:11:14.700Z,25.44
2023-07-04T16:13:42.941Z,25.43
2023-07-04T16:16:12.980Z,25.34
2023-07-04T16:18:41.234Z,25.39
2023-07-04T16:21:11.802Z,25.40
2023-07-04T16:23:41.871Z,25.72
2023-07-04T16:26:12.188Z,26.12
2023-07-04T16:28:40.525Z,26.32
2023-07-04T16:31:10.396Z,26.56
2023-07-04T16:33:40.243Z,26.97
2023-07-04T16:36:09.034Z,27.45
2023-07-04T16:38:37.340Z,27.99
2023-07-04T16:41:12.952Z,28.18
2023-07-04T16:43:41.822Z,28.06
2023-07-04T16:46:10.221Z,27.62
2023-07-04T16:48:38.613Z,27.13
2023-07-04T16:51:07.657Z,26.63
2023-07-04T16:53:36.125Z,26.26
2023-07-04T16:56:05.363Z,25.87
2023-07-04T16:58:33.597Z,25.49
2023-07-04T17:01:03.527Z,25.26
2023-07-04T17:03:33.325Z,25.05
2023-07-04T17:06:07.400Z,24.87
2023-07-04T17:08:38.241Z,24.73
2023-07-04T17:11:09.410Z,24.78
2023-07-04T17:13:40.256Z,24.76
2023-07-04T17:16:10.476Z,25.03
2023-07-04T17:18:40.582Z,25.10
2023-07-04T17:21:09.770Z,25.03
2023-07-04T17:23:38.416Z,24.89
2023-07-04T17:26:07.811Z,24.73
2023-07-04T17:28:36.200Z,24.59
2023-07-04T17:31:07.865Z,24.42
2023-07-04T17:33:36.733Z,24.28
2023-07-04T17:36:04.991Z,24.21
2023-07-04T17:38:34.564Z,24.24
2023-07-04T17:41:06.260Z,24.11
2023-07-04T17:43:34.906Z,23.86
2023-07-04T17:46:06.598Z,23.77
2023-07-04T17:48:34.797Z,23.68
2023-07-04T17:51:11.220Z,23.65
2023-07-04T17:53:40.196Z,23.58
2023-07-04T17:56:14.285Z,23.48
2023-07-04T17:58:42.849Z,23.34
2023-07-04T18:01:14.688Z,23.19
2023-07-04T18:03:46.440Z,23.06
2023-07-04T18:06:17.101Z,22.92
2023-07-04T18:08:45.799Z,22.83
2023-07-04T18:11:26.377Z,22.75
2023-07-04T18:13:59.046Z,22.62
2023-07-04T18:16:28.257Z,22.53
2023-07-04T18:18:57.504Z,22.43
2023-07-04T18:21:26.630Z,22.35
2023-07-04T18:24:02.658Z,22.31
2023-07-04T18:26:33.597Z,22.28
2023-07-04T18:29:04.043Z,22.27
2023-07-04T18:31:32.373Z,22.22
2023-07-04T18:34:01.309Z,22.09
2023-07-04T18:36:32.843Z,22.05
2023-07-04T18:39:01.857Z,22.01
2023-07-04T18:41:36.571Z,21.98
2023-07-04T18:44:07.080Z,21.91
2023-07-04T18:46:37.081Z,21.91
2023-07-04T18:49:06.662Z,21.88
2023-07-04T18:51:39.690Z,21.83
2023-07-04T18:54:12.001Z,21.77
2023-07-04T18:56:44.241Z,21.73
2023-07-04T18:59:14.902Z,21.68
2023-07-04T19:01:43.829Z,21.63
2023-07-04T19:04:13.084Z,21.60
2023-07-04T19:06:41.458Z,21.56
2023-07-04T19:09:11.474Z,21.52
2023-07-04T19:11:41.987Z,21.45
2023-07-04T19:14:22.048Z,21.36
2023-07-04T19:16:55.998Z,21.26
2023-07-04T19:19:29.678Z,21.15
2023-07-04T19:22:00.754Z,21.08
2023-07-04T19:24:30.344Z,21.04
2023-07-04T19:26:58.827Z,20.97
2023-07-04T19:29:28.245Z,20.92
2023-07-04T19:32:00.056Z,20.90
2023-07-04T19:34:29.125Z,20.84
2023-07-04T19:36:58.647Z,20.81
2023-07-04T19:39:32.010Z,20.82
2023-07-04T19:42:02.418Z,20.82
2023-07-04T19:44:30.972Z,20.80
2023-07-04T19:46:59.142Z,20.75
2023-07-04T19:49:27.404Z,20.68
2023-07-04T19:51:55.526Z,20.58
2023-07-04T19:54:24.252Z,20.62
2023-07-04T19:56:57.311Z,20.64
2023-07-04T19:59:26.430Z,20.64
2023-07-04T20:01:54.962Z,20.65
2023-07-04T20:04:23.470Z,20.62
2023-07-04T20:06:51.589Z,20.48
2023-07-04T20:09:19.840Z,20.32
2023-07-04T20:11:48.146Z,20.31
2023-07-04T20:14:16.378Z,20.29
2023-07-04T20:16:44.789Z,20.26
2023-07-04T20:19:13.224Z,20.27
2023-07-04T20:21:41.447Z,20.01
2023-07-04T20:24:09.625Z,19.83
2023-07-04T20:26:37.874Z,19.88
2023-07-04T20:29:06.028Z,19.77
2023-07-04T20:31:34.181Z,19.71
2023-07-04T20:34:03.706Z,19.63
2023-07-04T20:36:32.095Z,19.58
2023-07-04T20:39:00.424Z,19.62
2023-07-04T20:41:29.222Z,19.65
2023-07-04T20:43:57.209Z,19.58
2023-07-04T20:46:25.620Z,19.57
2023-07-04T20:48:54.018Z,19.50
2023-07-04T20:51:24.413Z,19.44
2023-07-04T20:53:52.708Z,19.47
2023-07-04T20:56:20.914Z,19.50
2023-07-04T20:58:49.223Z,19.53
2023-07-04T21:01:17.526Z,19.59
2023-07-04T21:03:45.869Z,19.57
2023-07-04T21:06:14.020Z,19.49
2023-07-04T21:08:42.746Z,19.53
2023-07-04T21:11:11.660Z,19.52
2023-07-04T21:13:39.920Z,19.56
2023-07-04T21:16:10.850Z,19.57
2023-07-04T21:18:39.711Z,19.60
2023-07-04T21:21:08.927Z,19.61
2023-07-04T21:23:37.993Z,19.57
2023-07-04T21:26:07.640Z,19.54
2023-07-04T21:28:37.149Z,19.45
2023-07-04T21:31:08.523Z,19.41
2023-07-04T21:33:40.119Z,19.36
2023-07-04T21:36:09.945Z,19.36
2023-07-04T21:38:39.665Z,19.31
2023-07-04T21:41:11.017Z,19.19
2023-07-04T21:43:39.174Z,19.04
2023-07-04T21:46:09.434Z,18.84
2023-07-04T21:48:38.163Z,18.84
2023-07-04T21:51:08.469Z,18.82
2023-07-04T21:53:36.678Z,18.76
2023-07-04T21:56:06.148Z,18.74
2023-07-04T21:58:34.773Z,18.74
2023-07-04T22:01:05.206Z,18.70
2023-07-04T22:03:36.425Z,18.69
2023-07-04T22:06:07.268Z,18.58
2023-07-04T22:08:38.824Z,18.55
2023-07-04T22:11:12.199Z,18.43
2023-07-04T22:13:43.516Z,18.34
2023-07-04T22:16:15.290Z,18.31
2023-07-04T22:18:43.478Z,18.22
2023-07-04T22:21:13.156Z,18.14
2023-07-04T22:23:42.276Z,17.97
2023-07-04T22:26:12.716Z,17.95
2023-07-04T22:28:42.289Z,17.91
2023-07-04T22:31:13.723Z,17.89
2023-07-04T22:34:06.113Z,17.85
2023-07-04T22:36:35.685Z,17.82
2023-07-04T22:39:05.273Z,17.80
2023-07-04T22:41:33.889Z,17.80
2023-07-04T22:44:02.136Z,17.83
2023-07-04T22:46:30.867Z,17.75
2023-07-04T22:48:59.705Z,17.72
2023-07-04T22:51:28.250Z,17.75
2023-07-04T22:53:56.411Z,17.72
2023-07-04T22:56:25.531Z,17.71
2023-07-04T22:58:53.712Z,17.73
2023-07-04T23:01:23.873Z,17.73
2023-07-04T23:03:52.329Z,17.73
2023-07-04T23:06:21.790Z,17.63
2023-07-04T23:08:49.999Z,17.62
2023-07-04T23:11:18.604Z,17.62
2023-07-04T23:13:47.274Z,17.62
2023-07-04T23:16:16.977Z,17.55
2023-07-04T23:18:48.207Z,17.56
2023-07-04T23:21:18.001Z,17.54
2023-07-04T23:23:48.375Z,17.54
2023-07-04T23:26:27.791Z,17.55
2023-07-04T23:28:55.970Z,17.49
2023-07-04T23:31:24.346Z,17.55
2023-07-04T23:33:52.695Z,17.59
2023-07-04T23:36:21.690Z,17.57
2023-07-04T23:38:51.665Z,17.58
2023-07-04T23:41:20.960Z,17.64
2023-07-04T23:43:49.341Z,17.68
2023-07-04T23:46:21.972Z,17.79
2023-07-04T23:48:50.525Z,17.88
2023-07-04T23:51:18.812Z,17.94
2023-07-04T23:53:47.209Z,17.99
2023-07-04T23:56:19.703Z,18.00
2023-07-04T23:58:47.997Z,17.95
